Time;durP1;ratioP1;P1;durP2;ratioP2;P2;SDS_P1;SDS_P2;PMS_P1;PMS_P2;Temp;Humidity;BMP_temperature;BMP_pressure;BME280_temperature;BME280_humidity;BME280_pressure;Samples;Min_cycle;Max_cycle;Signal;HPM_P1;HPM_P2
2021/08/22 00:01:43;;;;;;;6.00;4.60;;;19.80;99.90;;;;;;5053576;28;20029;-90
2021/08/22 00:04:09;;;;;;;5.72;4.40;;;19.80;99.90;;;;;;5053587;28;20028;-90
2021/08/22 00:06:34;;;;;;;14.00;5.30;;;19.70;99.90;;;;;;5053516;28;20030;-88
2021/08/22 00:09:00;;;;;;;10.60;5.00;;;19.70;99.90;;;;;;5053043;28;20029;-85
2021/08/22 00:11:26;;;;;;;7.82;3.80;;;19.60;99.90;;;;;;5052865;28;20074;-84
2021/08/22 00:13:51;;;;;;;6.47;2.72;;;19.30;99.90;;;;;;5052897;28;20029;-84
2021/08/22 00:16:18;;;;;;;6.32;2.80;;;19.00;99.90;;;;;;5052275;28;20029;-86
2021/08/22 00:18:44;;;;;;;5.82;2.67;;;18.60;99.90;;;;;;5052889;28;20056;-85
2021/08/22 00:21:10;;;;;;;18.58;2.92;;;18.60;99.90;;;;;;5053261;28;20053;-85
2021/08/22 00:23:35;;;;;;;19.50;3.00;;;18.40;99.90;;;;;;5052992;28;20021;-87
2021/08/22 00:26:01;;;;;;;8.02;2.50;;;17.90;99.90;;;;;;5053264;28;20481;-86
2021/08/22 00:28:27;;;;;;;12.23;3.25;;;17.70;99.90;;;;;;5052804;28;20025;-88
2021/08/22 00:30:52;;;;;;;5.72;2.85;;;17.60;99.90;;;;;;5052744;28;20074;-88
2021/08/22 00:33:18;;;;;;;6.32;2.90;;;17.70;99.90;;;;;;5053344;28;20550;-89
2021/08/22 00:35:44;;;;;;;8.48;2.95;;;17.70;99.90;;;;;;5054285;28;20024;-90
2021/08/22 00:38:10;;;;;;;4.97;3.03;;;17.90;99.90;;;;;;5066120;28;20029;-90
2021/08/22 00:40:35;;;;;;;5.85;3.30;;;18.10;99.90;;;;;;5076023;28;20021;-90
2021/08/22 00:43:08;;;;;;;6.90;2.83;;;18.20;99.90;;;;;;5064264;28;20423;-90
2021/08/22 00:45:37;;;;;;;5.53;2.80;;;18.20;99.90;;;;;;5055261;28;20032;-90
2021/08/22 00:48:03;;;;;;;4.78;2.47;;;18.30;99.90;;;;;;5053965;28;20056;-90
2021/08/22 00:50:29;;;;;;;6.78;2.75;;;18.30;99.90;;;;;;5052823;28;20492;-90
2021/08/22 00:52:57;;;;;;;4.95;2.60;;;18.30;99.90;;;;;;5084475;28;20060;-91
2021/08/22 00:55:23;;;;;;;5.45;2.72;;;18.50;99.90;;;;;;5076106;28;20016;-91
2021/08/22 00:57:49;;;;;;;6.07;2.72;;;18.60;99.90;;;;;;5076833;28;20115;-90
2021/08/22 01:00:15;;;;;;;5.18;2.95;;;18.70;99.90;;;;;;5076874;28;20058;-91
2021/08/22 01:03:02;;;;;;;7.45;2.70;;;18.70;99.90;;;;;;5076644;28;20035;-90
2021/08/22 01:05:52;;;;;;;8.45;2.83;;;18.60;99.90;;;;;;5078032;28;20028;-92
2021/08/22 01:08:34;;;;;;;13.93;2.60;;;18.50;99.90;;;;;;5076041;28;20020;-91
2021/08/22 01:11:19;;;;;;;8.45;2.70;;;18.40;99.90;;;;;;5076193;28;20165;-91
2021/08/22 01:13:55;;;;;;;4.07;2.58;;;18.40;99.90;;;;;;5076809;28;20016;-91
2021/08/22 01:16:22;;;;;;;4.45;2.50;;;18.40;99.90;;;;;;5076740;28;20020;-91
2021/08/22 01:18:50;;;;;;;7.40;2.72;;;18.30;99.90;;;;;;5076622;28;20020;-91
2021/08/22 01:21:19;;;;;;;5.28;2.58;;;18.30;99.90;;;;;;5076402;28;20039;-92
2021/08/22 01:23:55;;;;;;;5.22;3.15;;;18.30;99.90;;;;;;5076322;28;20024;-93
2021/08/22 01:26:35;;;;;;;8.90;3.38;;;18.30;99.90;;;;;;5076654;28;20368;-92
2021/08/22 01:29:03;;;;;;;4.47;2.67;;;18.30;99.90;;;;;;5075635;28;20479;-92
2021/08/22 01:31:35;;;;;;;6.32;2.60;;;18.40;99.90;;;;;;5076011;28;20091;-92
2021/08/22 01:34:01;;;;;;;7.10;2.50;;;18.40;99.90;;;;;;5076016;28;20388;-92
2021/08/22 01:36:28;;;;;;;3.08;2.22;;;18.40;99.90;;;;;;5076094;28;20016;-92
2021/08/22 01:38:55;;;;;;;3.90;2.75;;;18.30;99.90;;;;;;5076210;28;20020;-93
2021/08/22 01:41:25;;;;;;;4.63;2.60;;;18.50;99.90;;;;;;5076644;28;20039;-92
2021/08/22 01:43:56;;;;;;;4.25;2.35;;;18.60;99.90;;;;;;5076168;28;20066;-93
2021/08/22 01:46:35;;;;;;;5.05;2.67;;;18.50;99.90;;;;;;5077085;28;20020;-92
2021/08/22 01:49:03;;;;;;;5.38;2.70;;;18.50;99.90;;;;;;5075958;28;20028;-91
2021/08/22 01:51:30;;;;;;;4.30;2.67;;;18.60;99.90;;;;;;5076240;28;20101;-92
2021/08/22 01:54:06;;;;;;;3.55;2.25;;;18.50;99.90;;;;;;5075961;28;20054;-93
2021/08/22 01:56:32;;;;;;;3.53;2.60;;;18.60;99.90;;;;;;5076110;28;20020;-92
2021/08/22 01:58:58;;;;;;;3.45;2.50;;;18.80;99.90;;;;;;5076757;28;20078;-93
2021/08/22 02:01:24;;;;;;;5.15;2.65;;;18.90;99.90;;;;;;5076145;28;20431;-94
2021/08/22 02:04:03;;;;;;;5.88;2.20;;;19.00;99.90;;;;;;5076033;28;20498;-91
2021/08/22 02:06:47;;;;;;;3.40;2.28;;;19.00;99.90;;;;;;5075968;28;20020;-92
2021/08/22 02:09:15;;;;;;;3.40;2.40;;;19.00;99.90;;;;;;5076498;28;20020;-92
2021/08/22 02:11:49;;;;;;;4.60;2.40;;;18.90;99.90;;;;;;5075766;28;20067;-92
2021/08/22 02:14:16;;;;;;;;;;;18.80;99.90;;;;;;5076128;28;20340;-91
2021/08/22 02:16:47;;;;;;;5.72;2.50;;;18.90;99.90;;;;;;5076607;28;20053;-92
2021/08/22 02:19:14;;;;;;;4.25;2.60;;;18.90;99.90;;;;;;5076508;28;20477;-92
2021/08/22 02:21:41;;;;;;;6.57;2.45;;;19.00;99.90;;;;;;5075682;28;20027;-92
2021/08/22 02:24:07;;;;;;;7.28;2.50;;;18.90;99.90;;;;;;5075741;28;20024;-92
2021/08/22 02:26:34;;;;;;;4.15;2.70;;;19.00;99.90;;;;;;5076541;28;20036;-93
2021/08/22 02:29:00;;;;;;;5.03;2.28;;;19.10;99.90;;;;;;5076329;28;20020;-93
2021/08/22 02:31:27;;;;;;;4.13;2.13;;;19.10;99.90;;;;;;5075658;28;20028;-92
2021/08/22 02:33:56;;;;;;;3.60;1.88;;;19.00;99.90;;;;;;5075951;28;20031;-93
2021/08/22 02:36:22;;;;;;;4.93;2.40;;;19.10;99.90;;;;;;5076202;28;20106;-93
2021/08/22 02:38:48;;;;;;;7.50;2.58;;;18.90;99.90;;;;;;5076895;28;20081;-92
2021/08/22 02:41:14;;;;;;;4.15;2.13;;;19.00;99.90;;;;;;5080274;28;20112;-93
2021/08/22 02:43:40;;;;;;;4.22;2.10;;;18.90;99.90;;;;;;5082388;28;20058;-93
2021/08/22 02:46:06;;;;;;;6.40;2.17;;;19.00;99.90;;;;;;5086159;28;20103;-92
2021/08/22 02:48:33;;;;;;;4.60;1.88;;;19.00;99.90;;;;;;5086908;28;20077;-93
2021/08/22 02:50:59;;;;;;;3.97;1.90;;;18.80;99.90;;;;;;5102655;28;20043;-92
2021/08/22 02:53:25;;;;;;;5.78;2.13;;;18.70;99.90;;;;;;5080497;28;20049;-92
2021/08/22 02:55:50;;;;;;;3.13;1.98;;;18.70;99.90;;;;;;5059785;28;20029;-92
2021/08/22 02:58:16;;;;;;;2.70;2.05;;;18.70;99.90;;;;;;5056862;28;20021;-93
2021/08/22 03:00:42;;;;;;;6.72;2.28;;;18.70;99.90;;;;;;5055763;28;20087;-92
2021/08/22 03:03:07;;;;;;;4.70;2.42;;;18.80;99.90;;;;;;5055905;28;20028;-92
2021/08/22 03:05:33;;;;;;;5.88;2.00;;;18.70;99.90;;;;;;5055763;28;20025;-92
2021/08/22 03:07:59;;;;;;;2.78;2.10;;;18.70;99.90;;;;;;5056516;28;20033;-93
2021/08/22 03:10:25;;;;;;;5.38;2.50;;;18.60;99.90;;;;;;5055765;28;20025;-93
2021/08/22 03:12:50;;;;;;;6.30;1.92;;;18.60;99.90;;;;;;5055502;28;20025;-93
2021/08/22 03:15:16;;;;;;;5.60;2.20;;;18.70;99.90;;;;;;5056023;28;20112;-92
2021/08/22 03:17:42;;;;;;;2.53;2.03;;;18.60;99.90;;;;;;5056409;28;20479;-93
2021/08/22 03:20:08;;;;;;;3.67;2.28;;;18.30;99.90;;;;;;5055658;28;20103;-93
2021/08/22 03:22:34;;;;;;;3.58;1.98;;;18.30;99.90;;;;;;5055185;28;20436;-93
2021/08/22 03:25:01;;;;;;;5.13;2.50;;;18.50;99.90;;;;;;5055442;28;20035;-93
2021/08/22 03:27:27;;;;;;;3.35;2.25;;;18.50;99.90;;;;;;5056348;28;20025;-93
2021/08/22 03:29:53;;;;;;;6.13;2.33;;;18.40;99.90;;;;;;5055479;28;20157;-93
2021/08/22 03:32:18;;;;;;;3.60;2.33;;;18.30;99.90;;;;;;5054910;28;20071;-93
2021/08/22 03:34:44;;;;;;;4.80;2.30;;;18.20;99.90;;;;;;5055130;28;20170;-93
2021/08/22 03:37:10;;;;;;;4.30;2.28;;;18.20;99.90;;;;;;5055315;28;20151;-93
2021/08/22 03:39:36;;;;;;;5.20;2.25;;;18.20;99.90;;;;;;5054989;28;20024;-93
2021/08/22 03:42:02;;;;;;;6.05;1.98;;;18.00;99.90;;;;;;5054543;28;20025;-93
2021/08/22 03:44:27;;;;;;;4.90;2.13;;;18.00;99.90;;;;;;5054610;28;20033;-93
2021/08/22 03:46:53;;;;;;;3.42;2.00;;;18.00;99.90;;;;;;5054627;28;20519;-93
2021/08/22 03:49:22;;;;;;;6.93;2.35;;;18.10;99.90;;;;;;5055487;28;20035;-93
2021/08/22 03:51:48;;;;;;;3.95;2.30;;;18.10;99.90;;;;;;5054543;28;20481;-93
2021/08/22 03:54:13;;;;;;;6.28;2.33;;;18.10;99.90;;;;;;5055325;28;20021;-93
2021/08/22 03:56:40;;;;;;;3.97;2.05;;;18.20;99.90;;;;;;5054540;28;20025;-92
2021/08/22 03:59:07;;;;;;;5.53;2.45;;;18.30;99.90;;;;;;5054547;28;20029;-92
2021/08/22 04:01:34;;;;;;;5.35;2.67;;;18.30;99.90;;;;;;5054745;28;20050;-92
2021/08/22 04:04:01;;;;;;;6.55;2.30;;;18.20;99.90;;;;;;5054247;28;20021;-92
2021/08/22 04:06:27;;;;;;;4.75;2.47;;;18.10;99.90;;;;;;5054944;28;20391;-91
2021/08/22 04:08:53;;;;;;;2.97;2.38;;;18.00;99.90;;;;;;5054155;28;20031;-92
2021/08/22 04:11:19;;;;;;;7.78;2.28;;;18.00;99.90;;;;;;5053935;28;20125;-93
2021/08/22 04:13:44;;;;;;;3.60;2.47;;;18.00;99.90;;;;;;5054618;28;20108;-93
2021/08/22 04:16:10;;;;;;;4.57;2.22;;;18.00;99.90;;;;;;5054507;28;20057;-92
2021/08/22 04:18:36;;;;;;;3.45;2.20;;;18.00;99.90;;;;;;5054339;28;20029;-91
2021/08/22 04:21:01;;;;;;;5.47;2.00;;;18.20;99.90;;;;;;5054173;28;20025;-93
2021/08/22 04:23:27;;;;;;;3.95;2.42;;;18.20;99.90;;;;;;5054127;28;20028;-93
2021/08/22 04:25:53;;;;;;;5.45;2.20;;;18.10;99.90;;;;;;5054222;28;20064;-92
2021/08/22 04:28:20;;;;;;;5.70;2.60;;;18.20;99.90;;;;;;5053894;28;20036;-92
2021/08/22 04:30:46;;;;;;;4.20;2.40;;;18.10;99.90;;;;;;5054101;28;20068;-92
2021/08/22 04:33:12;;;;;;;5.60;2.35;;;18.00;99.90;;;;;;5054167;28;20032;-93
2021/08/22 04:35:38;;;;;;;6.10;2.40;;;18.00;99.90;;;;;;5054197;28;20029;-93
2021/08/22 04:38:04;;;;;;;6.22;2.50;;;18.00;99.90;;;;;;5053898;28;20070;-93
2021/08/22 04:40:33;;;;;;;3.78;2.30;;;17.90;99.90;;;;;;5053853;28;20599;-92
2021/08/22 04:42:59;;;;;;;3.78;2.00;;;18.00;99.90;;;;;;5060966;28;20025;-92
2021/08/22 04:45:24;;;;;;;3.45;1.95;;;18.10;99.90;;;;;;5053729;28;20025;-93
2021/08/22 04:47:51;;;;;;;4.30;2.03;;;18.30;99.90;;;;;;5053852;28;20021;-93
2021/08/22 04:50:17;;;;;;;5.70;2.70;;;18.40;99.90;;;;;;5053864;28;20083;-93
2021/08/22 04:52:42;;;;;;;4.03;2.22;;;18.30;99.90;;;;;;5053447;28;20493;-93
2021/08/22 04:55:08;;;;;;;5.10;2.45;;;18.20;99.90;;;;;;5058542;28;20051;-92
2021/08/22 04:57:35;;;;;;;5.15;1.90;;;18.50;99.90;;;;;;5065396;28;20025;-93
2021/08/22 05:00:01;;;;;;;6.28;2.40;;;18.70;99.90;;;;;;5068250;28;20037;-94
2021/08/22 05:02:26;;;;;;;5.07;2.15;;;18.70;99.90;;;;;;5076066;28;20013;-93
2021/08/22 05:04:52;;;;;;;4.88;2.40;;;18.50;99.90;;;;;;5077002;28;20022;-93
2021/08/22 05:07:18;;;;;;;3.17;2.08;;;18.40;99.90;;;;;;5059111;28;20224;-93
2021/08/22 05:09:44;;;;;;;3.90;2.28;;;18.30;99.90;;;;;;5054990;28;20032;-94
2021/08/22 05:12:12;;;;;;;4.05;2.20;;;18.20;99.90;;;;;;5053829;28;20032;-92
2021/08/22 05:14:37;;;;;;;3.65;2.20;;;18.30;99.90;;;;;;5053755;28;20029;-93
2021/08/22 05:17:03;;;;;;;6.78;2.50;;;18.20;99.90;;;;;;5053219;28;20036;-93
2021/08/22 05:19:29;;;;;;;4.63;2.00;;;18.20;99.90;;;;;;5053816;28;20473;-93
2021/08/22 05:21:55;;;;;;;4.18;2.25;;;18.30;99.90;;;;;;5053147;28;20021;-93
2021/08/22 05:24:21;;;;;;;3.22;2.20;;;18.60;99.90;;;;;;5053021;28;20025;-93
2021/08/22 05:26:47;;;;;;;4.25;2.40;;;18.50;99.90;;;;;;5053139;28;20025;-93
2021/08/22 05:29:13;;;;;;;5.50;2.40;;;18.60;99.90;;;;;;5053011;28;20115;-93
2021/08/22 05:31:39;;;;;;;8.57;2.72;;;18.80;99.90;;;;;;5053218;28;20052;-93
2021/08/22 05:34:04;;;;;;;3.83;2.13;;;18.60;99.90;;;;;;5053269;28;20055;-94
2021/08/22 05:36:35;;;;;;;3.45;2.58;;;18.40;99.90;;;;;;5053453;28;20024;-94
2021/08/22 05:39:01;;;;;;;5.05;2.42;;;18.50;99.90;;;;;;5053657;28;20024;-94
2021/08/22 05:41:27;;;;;;;3.85;2.35;;;18.60;99.90;;;;;;5053182;28;20496;-93
2021/08/22 05:43:53;;;;;;;3.83;2.50;;;18.60;99.90;;;;;;5052805;28;20021;-93
2021/08/22 05:46:19;;;;;;;4.38;2.45;;;18.70;99.90;;;;;;5054055;28;20029;-93
2021/08/22 05:48:44;;;;;;;3.80;2.60;;;18.60;99.90;;;;;;5052764;28;20143;-94
2021/08/22 05:51:19;;;;;;;4.30;2.30;;;18.70;99.90;;;;;;5053469;28;20083;-93
2021/08/22 05:53:45;;;;;;;2.97;2.20;;;18.80;99.90;;;;;;5076263;28;20051;-92
2021/08/22 05:56:11;;;;;;;4.25;2.58;;;18.80;99.90;;;;;;5076366;28;20383;-91
2021/08/22 05:58:37;;;;;;;3.97;2.42;;;18.80;99.90;;;;;;5075969;28;20028;-92
2021/08/22 06:01:04;;;;;;;3.28;2.38;;;18.90;99.90;;;;;;5076611;28;20031;-94
2021/08/22 06:03:31;;;;;;;3.45;2.60;;;19.00;99.90;;;;;;5075962;28;20537;-93
2021/08/22 06:05:56;;;;;;;4.22;2.83;;;19.00;99.90;;;;;;5076080;28;20077;-93
2021/08/22 06:08:22;;;;;;;6.43;2.80;;;19.20;99.90;;;;;;5075796;28;20024;-92
2021/08/22 06:10:48;;;;;;;11.65;3.28;;;19.40;99.90;;;;;;5077066;28;20036;-92
2021/08/22 06:13:14;;;;;;;5.03;3.00;;;19.40;99.90;;;;;;5076700;28;20065;-92
2021/08/22 06:15:40;;;;;;;3.25;2.63;;;19.50;99.90;;;;;;5079669;28;20024;-92
2021/08/22 06:18:05;;;;;;;4.75;2.88;;;19.50;99.90;;;;;;5079592;28;20141;-93
2021/08/22 06:20:31;;;;;;;5.40;2.55;;;19.40;99.90;;;;;;5079606;28;20021;-93
2021/08/22 06:22:57;;;;;;;8.25;3.10;;;19.50;99.90;;;;;;5080367;28;20078;-92
2021/08/22 06:25:23;;;;;;;4.85;3.17;;;19.60;99.90;;;;;;5079610;28;20111;-94
2021/08/22 06:27:49;;;;;;;7.05;3.50;;;19.50;99.90;;;;;;5079633;28;20069;-93
2021/08/22 06:30:15;;;;;;;5.78;3.80;;;19.40;99.90;;;;;;5079534;28;20441;-93
2021/08/22 06:32:41;;;;;;;6.15;2.97;;;19.40;99.90;;;;;;5079463;28;20024;-93
2021/08/22 06:35:07;;;;;;;4.18;3.17;;;19.50;99.90;;;;;;5079239;28;20109;-92
2021/08/22 06:37:32;;;;;;;7.10;3.17;;;19.50;99.90;;;;;;5079403;28;20017;-94
2021/08/22 06:39:59;;;;;;;4.45;3.15;;;19.60;99.90;;;;;;5081188;28;20025;-93
2021/08/22 06:42:25;;;;;;;5.28;3.53;;;19.70;99.90;;;;;;5079630;28;20023;-93
2021/08/22 06:44:52;;;;;;;5.40;3.25;;;19.70;99.90;;;;;;5080116;28;20463;-93
2021/08/22 06:47:17;;;;;;;4.10;3.20;;;19.70;99.90;;;;;;5079671;28;20024;-93
2021/08/22 06:49:43;;;;;;;8.18;3.33;;;19.60;99.90;;;;;;5079726;28;20024;-94
2021/08/22 06:52:09;;;;;;;7.55;3.33;;;19.70;99.90;;;;;;5078932;28;20131;-93
2021/08/22 06:54:36;;;;;;;4.43;3.30;;;19.70;99.90;;;;;;5079060;28;20055;-93
2021/08/22 06:57:02;;;;;;;6.18;3.45;;;19.80;99.90;;;;;;5079110;28;20079;-93
2021/08/22 06:59:27;;;;;;;5.60;3.78;;;19.70;99.90;;;;;;5079219;28;20028;-93
2021/08/22 07:01:53;;;;;;;6.43;3.85;;;19.50;99.90;;;;;;5079406;28;20380;-92
2021/08/22 07:04:19;;;;;;;6.03;3.70;;;19.50;99.90;;;;;;5079081;28;20096;-93
2021/08/22 07:06:45;;;;;;;5.95;4.03;;;19.40;99.90;;;;;;5081465;28;20036;-92
2021/08/22 07:09:10;;;;;;;7.03;4.15;;;19.40;99.90;;;;;;5087933;28;20028;-92
2021/08/22 07:11:36;;;;;;;7.40;3.70;;;19.40;99.90;;;;;;5087862;28;20028;-92
2021/08/22 07:14:02;;;;;;;5.65;3.67;;;19.50;99.90;;;;;;5101649;28;20008;-92
2021/08/22 07:16:28;;;;;;;8.68;3.92;;;19.60;99.90;;;;;;5103044;28;20096;-91
2021/08/22 07:18:54;;;;;;;7.68;3.67;;;19.50;99.90;;;;;;5082658;28;20020;-91
2021/08/22 07:21:20;;;;;;;6.78;4.18;;;19.40;99.90;;;;;;5081163;28;20474;-91
2021/08/22 07:23:46;;;;;;;4.82;3.30;;;19.50;99.90;;;;;;5079270;28;20028;-91
2021/08/22 07:26:12;;;;;;;9.30;4.13;;;19.60;99.90;;;;;;5078274;28;20024;-91
2021/08/22 07:28:38;;;;;;;4.22;3.22;;;19.70;99.90;;;;;;5078321;28;20028;-92
2021/08/22 07:31:06;;;;;;;7.57;3.40;;;19.80;99.90;;;;;;5079105;28;20491;-91
2021/08/22 07:33:35;;;;;;;6.82;3.65;;;19.90;99.90;;;;;;5078355;28;20016;-91
2021/08/22 07:36:02;;;;;;;8.00;4.03;;;20.10;99.90;;;;;;5078154;28;20077;-91
2021/08/22 07:38:28;;;;;;;6.72;3.38;;;20.20;99.90;;;;;;5078296;28;20108;-91
2021/08/22 07:40:54;;;;;;;4.40;3.40;;;20.20;99.90;;;;;;5077601;28;20576;-91
2021/08/22 07:43:20;;;;;;;5.13;3.15;;;20.10;99.90;;;;;;5077744;28;20476;-90
2021/08/22 07:45:46;;;;;;;4.65;3.22;;;20.20;99.90;;;;;;5077455;28;20028;-90
2021/08/22 07:48:12;;;;;;;8.15;3.70;;;20.20;99.90;;;;;;5078153;28;20107;-90
2021/08/22 07:50:38;;;;;;;5.07;3.20;;;20.10;99.90;;;;;;5077258;28;20182;-90
2021/08/22 07:53:04;;;;;;;5.22;3.35;;;20.10;99.90;;;;;;5058330;28;20174;-90
2021/08/22 07:55:29;;;;;;;5.78;3.50;;;20.20;99.90;;;;;;5054247;28;20021;-89
2021/08/22 07:57:55;;;;;;;6.35;3.50;;;20.20;99.90;;;;;;5053931;28;20053;-89
2021/08/22 08:00:21;;;;;;;6.15;3.80;;;20.30;99.90;;;;;;5054521;28;20017;-88
2021/08/22 08:02:47;;;;;;;5.65;3.38;;;20.20;99.90;;;;;;5053328;28;20029;-89
2021/08/22 08:05:13;;;;;;;6.15;3.10;;;20.40;99.90;;;;;;5053123;28;20030;-89
2021/08/22 08:07:40;;;;;;;4.63;3.10;;;20.60;99.90;;;;;;5053300;28;20445;-89
2021/08/22 08:10:08;;;;;;;4.57;3.03;;;20.90;99.90;;;;;;5053217;28;20548;-88
2021/08/22 08:12:34;;;;;;;4.13;3.65;;;21.00;99.90;;;;;;5052916;28;20119;-89
2021/08/22 08:15:00;;;;;;;5.72;3.47;;;21.10;99.90;;;;;;5053134;28;20392;-88
2021/08/22 08:17:26;;;;;;;7.68;3.60;;;21.20;99.90;;;;;;5052925;28;20028;-89
2021/08/22 08:19:52;;;;;;;9.48;4.18;;;21.30;99.90;;;;;;5052981;28;20021;-89
2021/08/22 08:22:18;;;;;;;5.78;3.40;;;21.20;99.90;;;;;;5053073;28;20115;-88
2021/08/22 08:24:44;;;;;;;4.90;3.00;;;21.00;99.90;;;;;;5052721;28;20520;-89
2021/08/22 08:27:09;;;;;;;8.82;3.58;;;21.10;99.90;;;;;;5052905;28;20025;-87
2021/08/22 08:29:35;;;;;;;5.45;3.45;;;21.10;99.90;;;;;;5052707;28;20032;-89
2021/08/22 08:32:01;;;;;;;10.52;3.20;;;21.00;99.90;;;;;;5052636;28;20036;-87
2021/08/22 08:34:27;;;;;;;6.03;3.10;;;21.00;99.90;;;;;;5052682;28;20507;-88
2021/08/22 08:36:53;;;;;;;8.65;3.40;;;21.00;99.90;;;;;;5052091;28;20025;-89
2021/08/22 08:39:18;;;;;;;6.72;3.10;;;21.00;99.90;;;;;;5052546;28;20029;-87
2021/08/22 08:41:44;;;;;;;7.15;3.20;;;20.90;99.90;;;;;;5052718;28;20116;-88
2021/08/22 08:44:12;;;;;;;5.70;3.35;;;21.00;99.90;;;;;;5052437;28;20028;-87
2021/08/22 08:46:39;;;;;;;5.05;3.13;;;21.10;99.90;;;;;;5052796;28;20489;-88
2021/08/22 08:49:28;;;;;;;5.95;3.40;;;21.20;99.90;;;;;;5052440;28;20021;-89
2021/08/22 08:52:21;;;;;;;4.28;3.53;;;21.10;99.90;;;;;;5052122;28;20562;-89
2021/08/22 08:55:26;;;;;;;3.28;2.97;;;21.20;99.90;;;;;;5052297;28;20017;-87
2021/08/22 08:57:51;;;;;;;5.97;3.90;;;21.20;99.90;;;;;;5022380;28;20060;-87
2021/08/22 09:00:24;;;;;;;4.65;3.45;;;21.20;99.90;;;;;;5053500;28;20048;-87
2021/08/22 09:02:50;;;;;;;4.43;3.63;;;21.10;99.90;;;;;;5053465;28;20025;-87
2021/08/22 09:05:31;;;;;;;4.28;3.30;;;21.00;99.90;;;;;;5052145;28;20035;-88
2021/08/22 09:08:34;;;;;;;5.38;3.35;;;20.90;99.90;;;;;;5052163;28;20021;-87
2021/08/22 09:11:37;;;;;;;6.25;3.58;;;20.90;99.90;;;;;;5053276;28;20052;-87
2021/08/22 09:14:21;;;;;;;4.53;3.20;;;21.00;99.90;;;;;;5052037;28;20032;-85
2021/08/22 09:17:24;;;;;;;4.90;3.80;;;21.00;99.90;;;;;;5051974;28;20028;-87
2021/08/22 09:19:56;;;;;;;9.70;4.53;;;21.10;99.90;;;;;;5053359;28;20025;-88
2021/08/22 09:22:30;;;;;;;5.70;4.10;;;21.30;99.90;;;;;;5052435;28;20028;-87
2021/08/22 09:25:34;;;;;;;7.60;3.47;;;21.50;99.90;;;;;;5074679;28;20013;-88
2021/08/22 09:28:37;;;;;;;4.25;3.40;;;21.70;99.90;;;;;;5069831;28;20428;-87
2021/08/22 09:31:30;;;;;;;4.40;3.25;;;21.70;99.90;;;;;;5053137;28;20025;-86
2021/08/22 09:34:26;;;;;;;6.40;3.67;;;21.90;99.90;;;;;;5052274;28;20028;-87
2021/08/22 09:37:07;;;;;;;4.75;3.55;;;22.10;99.90;;;;;;5053183;28;20021;-86
2021/08/22 09:39:54;;;;;;;6.45;3.85;;;21.70;99.90;;;;;;5051753;28;20040;-86
2021/08/22 09:42:57;;;;;;;6.53;3.72;;;21.40;99.90;;;;;;5053075;28;20473;-85
2021/08/22 09:45:41;;;;;;;6.00;3.60;;;21.50;99.90;;;;;;5051603;28;20025;-88
2021/08/22 09:48:35;;;;;;;8.80;3.75;;;21.60;99.90;;;;;;5051872;28;20440;-87
2021/08/22 09:51:31;;;;;;;6.03;3.55;;;21.50;99.90;;;;;;5056235;28;20469;-87
2021/08/22 09:54:21;;;;;;;5.45;3.65;;;21.30;99.90;;;;;;5055735;28;20362;-86
2021/08/22 09:57:25;;;;;;;4.63;3.90;;;21.30;99.90;;;;;;5055475;28;20082;-86
2021/08/22 10:00:09;;;;;;;8.32;3.92;;;21.40;99.90;;;;;;5055547;28;20074;-87
2021/08/22 10:02:50;;;;;;;5.25;4.07;;;21.30;99.90;;;;;;5055441;28;20032;-86
2021/08/22 10:05:40;;;;;;;6.65;4.15;;;21.10;99.90;;;;;;5055343;28;20458;-87
2021/08/22 10:08:28;;;;;;;7.47;4.35;;;21.10;99.90;;;;;;5055352;28;20033;-88
2021/08/22 10:11:04;;;;;;;6.25;3.90;;;21.00;99.90;;;;;;5055185;28;20061;-86
2021/08/22 10:13:31;;;;;;;5.22;3.53;;;20.90;99.90;;;;;;5056605;28;20473;-86
2021/08/22 10:15:57;;;;;;;7.63;4.22;;;21.00;99.90;;;;;;5055126;28;20113;-86
2021/08/22 10:18:26;;;;;;;5.97;3.90;;;21.00;99.90;;;;;;5055088;28;20022;-85
2021/08/22 10:21:00;;;;;;;6.00;3.70;;;21.00;99.90;;;;;;5055247;28;20044;-87
2021/08/22 10:23:46;;;;;;;;;;;20.90;99.90;;;;;;5055750;28;20526;-86
2021/08/22 10:26:45;;;;;;;4.43;3.70;;;21.00;99.90;;;;;;5054675;28;19912;-86
2021/08/22 10:29:15;;;;;;;4.88;4.00;;;21.00;99.90;;;;;;5054959;28;20028;-86
2021/08/22 10:32:05;;;;;;;8.10;3.95;;;21.10;99.90;;;;;;5054880;28;20056;-87
2021/08/22 10:34:35;;;;;;;5.22;3.78;;;21.10;99.90;;;;;;5047576;28;20033;-86
2021/08/22 10:37:24;;;;;;;5.35;4.25;;;21.00;99.90;;;;;;5054686;28;20021;-87
2021/08/22 10:39:50;;;;;;;4.78;4.15;;;20.80;99.90;;;;;;5054861;28;20017;-87
2021/08/22 10:42:18;;;;;;;5.45;3.95;;;20.90;99.90;;;;;;5054564;28;20024;-86
2021/08/22 10:44:43;;;;;;;6.32;4.47;;;20.90;99.90;;;;;;5054902;28;20459;-87
2021/08/22 10:47:21;;;;;;;5.53;4.07;;;21.00;99.90;;;;;;5057645;28;20068;-88
2021/08/22 10:49:53;;;;;;;5.63;3.97;;;20.90;99.90;;;;;;5054686;28;20029;-86
2021/08/22 10:52:35;;;;;;;4.57;3.80;;;20.90;99.90;;;;;;5053632;28;20037;-87
2021/08/22 10:55:15;;;;;;;7.38;3.70;;;21.10;99.90;;;;;;5053304;28;20025;-86
2021/08/22 10:57:44;;;;;;;4.70;3.58;;;21.10;99.90;;;;;;5053283;28;20504;-86
2021/08/22 11:00:23;;;;;;;6.97;4.25;;;21.00;99.90;;;;;;5052841;28;20025;-85
2021/08/22 11:02:57;;;;;;;4.05;3.63;;;20.80;99.90;;;;;;5053210;28;20029;-85
2021/08/22 11:05:34;;;;;;;6.80;4.38;;;20.80;99.90;;;;;;5053160;28;20025;-85
2021/08/22 11:08:18;;;;;;;4.82;4.07;;;20.90;99.90;;;;;;5053133;28;20029;-85
2021/08/22 11:11:01;;;;;;;4.40;4.00;;;20.90;99.90;;;;;;5053066;28;20481;-85
2021/08/22 11:13:41;;;;;;;4.67;4.13;;;21.00;99.90;;;;;;5053168;28;20029;-85
2021/08/22 11:16:08;;;;;;;4.72;4.00;;;21.10;99.90;;;;;;5054369;28;20615;-86
2021/08/22 11:18:36;;;;;;;7.28;4.10;;;21.10;99.90;;;;;;5053041;28;20116;-86
2021/08/22 11:21:02;;;;;;;7.55;5.53;;;21.10;99.90;;;;;;5052897;28;20025;-85
2021/08/22 11:23:29;;;;;;;7.88;4.65;;;21.20;99.90;;;;;;5052966;28;20090;-86
2021/08/22 11:26:02;;;;;;;4.90;4.05;;;21.10;99.90;;;;;;5054033;28;20035;-86
2021/08/22 11:28:28;;;;;;;5.18;4.07;;;21.10;99.90;;;;;;5052801;28;20092;-86
2021/08/22 11:30:53;;;;;;;5.88;4.15;;;21.10;99.90;;;;;;5052953;28;20029;-86
2021/08/22 11:33:20;;;;;;;6.53;4.40;;;21.10;99.90;;;;;;5062467;28;20021;-85
2021/08/22 11:35:47;;;;;;;7.50;3.83;;;21.00;99.90;;;;;;5070982;28;20040;-85
2021/08/22 11:38:14;;;;;;;7.65;4.00;;;20.90;99.90;;;;;;5062415;28;20021;-85
2021/08/22 11:40:40;;;;;;;5.35;4.35;;;20.90;99.90;;;;;;5053541;28;20159;-85
2021/08/22 11:43:09;;;;;;;5.30;4.25;;;20.80;99.90;;;;;;5052999;28;20035;-85
2021/08/22 11:45:41;;;;;;;4.70;3.10;;;20.70;99.90;;;;;;5054278;28;20075;-85
2021/08/22 11:48:14;;;;;;;5.22;3.75;;;20.50;99.90;;;;;;5052633;28;20374;-85
2021/08/22 11:50:40;;;;;;;4.65;3.25;;;20.10;99.90;;;;;;5052562;28;20032;-85
2021/08/22 11:53:07;;;;;;;6.25;3.63;;;20.00;99.90;;;;;;5013418;28;1145952;-86
2021/08/22 11:55:35;;;;;;;5.38;2.80;;;19.90;99.90;;;;;;5053465;28;20025;-86
2021/08/22 11:58:11;;;;;;;4.90;3.05;;;19.70;99.90;;;;;;5054810;28;20021;-86
2021/08/22 12:00:39;;;;;;;5.78;3.53;;;19.80;99.90;;;;;;5054588;28;20021;-87
2021/08/22 12:03:09;;;;;;;3.75;2.42;;;19.80;99.90;;;;;;5053343;28;20032;-87
2021/08/22 12:05:35;;;;;;;6.00;2.78;;;19.60;99.90;;;;;;5053260;28;20021;-86
2021/08/22 12:08:08;;;;;;;3.63;2.40;;;19.60;99.90;;;;;;5053258;28;20025;-87
2021/08/22 12:10:36;;;;;;;3.60;2.50;;;19.60;99.90;;;;;;5054015;28;20493;-87
2021/08/22 12:13:02;;;;;;;3.70;2.95;;;19.40;99.90;;;;;;5052573;28;20434;-87
2021/08/22 12:15:35;;;;;;;3.45;2.50;;;19.30;99.90;;;;;;5053178;28;20025;-87
2021/08/22 12:18:29;;;;;;;7.78;2.40;;;19.40;99.90;;;;;;5052996;28;20070;-88
2021/08/22 12:21:07;;;;;;;5.95;2.47;;;19.40;99.90;;;;;;5054240;28;20021;-88
2021/08/22 12:23:36;;;;;;;3.85;2.60;;;19.40;99.90;;;;;;5053039;28;20029;-88
2021/08/22 12:26:27;;;;;;;3.58;2.30;;;19.40;99.90;;;;;;5052884;28;20033;-88
2021/08/22 12:28:55;;;;;;;4.47;2.42;;;19.60;99.90;;;;;;5052949;28;20024;-88
2021/08/22 12:31:30;;;;;;;3.38;2.22;;;19.70;99.90;;;;;;5052803;28;20116;-88
2021/08/22 12:33:56;;;;;;;3.05;2.35;;;19.60;99.90;;;;;;5052920;28;20094;-92
2021/08/22 12:36:36;;;;;;;3.53;2.40;;;19.40;99.90;;;;;;5053541;28;20481;-90
2021/08/22 12:39:07;;;;;;;5.18;2.40;;;19.40;99.90;;;;;;5052505;28;20088;-88
2021/08/22 12:41:51;;;;;;;4.88;2.83;;;19.40;99.90;;;;;;5052778;28;20047;-89
2021/08/22 12:44:18;;;;;;;4.65;2.47;;;19.50;99.90;;;;;;5052699;28;20025;-89
2021/08/22 12:46:51;;;;;;;5.57;2.67;;;19.70;99.90;;;;;;5052461;28;20067;-89
2021/08/22 12:49:17;;;;;;;3.85;2.30;;;19.60;99.90;;;;;;5052408;28;20028;-89
2021/08/22 12:51:54;;;;;;;3.03;2.50;;;19.50;99.90;;;;;;5062893;28;20051;-89
2021/08/22 12:54:22;;;;;;;5.70;2.20;;;19.50;99.90;;;;;;5076095;28;20024;-89
2021/08/22 12:56:48;;;;;;;3.83;2.15;;;19.40;99.90;;;;;;5075702;28;20023;-89
2021/08/22 12:59:13;;;;;;;3.42;1.73;;;19.50;99.90;;;;;;5075699;28;20020;-89
2021/08/22 13:01:39;;;;;;;2.88;2.10;;;19.50;99.90;;;;;;5075747;28;20407;-89
2021/08/22 13:04:05;;;;;;;4.57;2.67;;;19.50;99.90;;;;;;5075761;28;20024;-89